Latest Weather Observations for Leigh Creek

IDS60801

Issued at 5:31 pm CDT Monday 2 March 2015 (issued every 30 minutes, with the page automatically refreshed every 10 minutes)

About weather observations | Map of weather stations | Latest weather observations for SA | Other Formats
Station Details ID: 017110 Name: LEIGH CREEK AIRPORT Lat: -30.60 Lon: 138.42 Height: 258.8 m
Data from the previous 72 hours. | See also: Recent months at Leigh Creek
Date/Time
CDT
Temp
°C
App
Temp
°C
Dew
Point
Rel
Hum
%
Delta-T
°C
Wind Press
QNH
hPa
Press
MSL
hPa
Rain
since 9 am
mm
Dir
 
Spd
km/h
Gust
km/h
Spd
kts
Gust
kts
02/05:30pm 33.7 27.9 -5.1 8 17.7 SW 17 24 9 13 1010.4 1009.1 0.0
02/05:00pm 34.0 27.8 -4.9 8 17.8 S 19 28 10 15 1010.4 1009.1 0.0
02/04:30pm 34.2 27.1 -4.7 8 17.9 SW 24 37 13 20 1010.4 1009.1 0.0
02/04:00pm 35.2 30.0 -2.4 9 18.1 S 15 33 8 18 1010.3 1009.0 0.0
02/03:30pm 33.9 28.1 -4.9 8 17.8 SW 17 24 9 13 1010.5 1009.2 0.0
02/03:00pm 33.6 28.3 -3.6 9 17.4 S 15 30 8 16 1010.8 1009.5 0.0
02/02:30pm 33.2 28.0 -2.5 10 16.9 SW 15 28 8 15 1011.3 1010.0 0.0
02/02:00pm 32.5 27.3 -3.0 10 16.6 SW 15 26 8 14 1011.7 1010.4 0.0
02/01:30pm 32.9 27.9 -1.4 11 16.5 SSW 15 26 8 14 1011.7 1010.4 0.0
02/01:00pm 31.6 27.7 -1.2 12 15.7 N 9 20 5 11 1012.1 1010.9 0.0
02/12:30pm 31.2 26.5 -1.5 12 15.5 S 13 20 7 11 1012.5 1011.2 0.0
02/12:00pm 31.6 27.3 0.9 14 15.2 SW 13 26 7 14 1013.0 1011.7 0.0
02/11:30am 29.9 26.1 -0.5 14 14.6 ENE 9 13 5 7 1013.4 1012.1 0.0
02/11:00am 29.9 25.0 -0.5 14 14.6 SE 15 22 8 12 1013.6 1012.3 0.0
02/10:30am 29.1 23.0 0.7 16 13.8 ESE 22 30 12 16 1013.7 1012.4 0.0
02/10:00am 27.7 21.1 2.0 19 12.7 E 26 32 14 17 1013.6 1012.3 0.0
02/09:30am 26.4 19.8 2.3 21 11.8 ESE 26 33 14 18 1013.7 1012.4 0.0
02/09:00am 24.7 17.0 2.2 23 10.9 ESE 32 39 17 21 1013.1 1011.8 0.0
02/08:30am 23.1 17.6 2.0 25 10.1 ESE 20 28 11 15 1013.2 1011.9 0.0
02/08:00am 21.7 15.4 1.4 26 9.5 ESE 24 30 13 16 1013.0 1011.7 0.0
02/07:30am 21.1 14.8 1.4 27 9.2 ESE 24 28 13 15 1012.8 1011.5 0.0
02/07:00am 21.0 13.9 1.3 27 9.1 ESE 28 33 15 18 1012.2 1011.0 0.0
02/06:30am 21.1 14.4 1.4 27 9.2 ESE 26 33 14 18 1012.2 1011.0 0.0
02/06:00am 21.2 14.0 1.0 26 9.3 ESE 28 37 15 20 1012.2 1011.0 0.0
02/05:30am 21.5 13.6 1.2 26 9.4 ESE 32 41 17 22 1011.9 1010.6 0.0
02/05:00am 21.9 14.1 1.5 26 9.6 ESE 32 39 17 21 1011.8 1010.5 0.0
02/04:30am 22.1 13.7 1.7 26 9.6 ESE 35 43 19 23 1011.6 1010.3 0.0
02/04:00am 22.2 14.4 1.8 26 9.6 E 32 43 17 23 1011.7 1010.4 0.0
02/03:30am 22.1 14.1 1.7 26 9.6 ESE 33 41 18 22 1011.8 1010.5 0.0
02/03:00am 22.4 14.4 1.4 25 9.9 ESE 33 43 18 23 1011.9 1010.6 0.0
02/02:30am 22.5 14.7 1.5 25 9.9 E 32 44 17 24 1012.3 1011.1 0.0
02/02:00am 22.9 15.0 1.3 24 10.2 ESE 32 39 17 21 1012.7 1011.4 0.0
02/01:30am 23.0 16.3 1.4 24 10.2 ESE 26 43 14 23 1012.7 1011.4 0.0
02/01:00am 23.2 16.8 0.9 23 10.4 ESE 24 32 13 17 1012.9 1011.6 0.0
02/12:30am 23.8 16.5 0.2 21 10.9 ESE 28 35 15 19 1012.8 1011.5 0.0
02/12:00am 24.3 16.9 -0.8 19 11.5 ESE 28 41 15 22 1012.8 1011.5 0.0
 
Date/Time
CDT
Temp
°C
App
Temp
°C
Dew
Point
Rel
Hum
%
Delta-T
°C
Wind Press
QNH
hPa
Press
MSL
hPa
Rain
since 9 am
mm
Dir
 
Spd
km/h
Gust
km/h
Spd
kts
Gust
kts
01/11:30pm 24.0 18.3 -1.0 19 11.4 ESE 19 24 10 13 1012.9 1011.6 0.0
01/11:00pm 24.1 19.1 -0.9 19 11.4 SE 15 20 8 11 1013.2 1011.9 0.0
01/10:30pm 24.1 20.4 -0.2 20 11.2 SE 9 13 5 7 1013.3 1012.0 0.0
01/10:00pm 24.7 21.1 0.3 20 11.4 SE 9 15 5 8 1013.3 1012.0 0.0
01/09:30pm 25.6 20.7 -0.5 18 12.1 SE 15 20 8 11 1013.2 1011.9 0.0
01/09:00pm 26.2 20.6 0.0 18 12.3 ESE 19 26 10 14 1012.9 1011.6 0.0
01/08:30pm 26.9 22.3 1.3 19 12.4 SE 15 24 8 13 1012.7 1011.4 0.0
01/08:00pm 27.6 22.0 1.2 18 12.8 ESE 20 28 11 15 1012.2 1011.0 0.0
01/07:30pm 28.8 23.7 0.5 16 13.7 SE 17 26 9 14 1012.0 1010.7 0.0
01/07:00pm 29.8 24.9 2.1 17 13.9 SSE 17 30 9 16 1011.7 1010.4 0.0
01/06:30pm 30.4 25.8 1.8 16 14.3 SSE 15 26 8 14 1011.4 1010.1 0.0
01/06:00pm 31.0 25.6 1.4 15 14.8 SE 19 26 10 14 1011.2 1009.9 0.0
01/05:30pm 31.4 26.6 2.6 16 14.7 SE 17 24 9 13 1011.0 1009.7 0.0
01/05:00pm 32.0 26.9 3.1 16 14.9 SE 19 28 10 15 1010.9 1009.6 0.0
01/04:30pm 32.0 26.3 4.7 18 14.5 ESE 24 35 13 19 1010.8 1009.5 0.0
01/04:00pm 31.9 27.5 4.6 18 14.4 ESE 17 26 9 14 1011.0 1009.7 0.0
01/03:30pm 31.8 27.8 6.8 21 13.7 SE 17 26 9 14 1011.1 1009.8 0.0
01/03:00pm 30.9 27.2 8.0 24 12.7 ESE 17 26 9 14 1011.3 1010.0 0.0
01/02:30pm 31.5 28.5 7.9 23 13.1 SSE 13 22 7 12 1011.4 1010.1 0.0
01/02:00pm 30.5 27.6 8.3 25 12.4 SE 13 20 7 11 1011.8 1010.5 0.0
01/01:30pm 29.7 26.4 8.2 26 11.9 SE 15 28 8 15 1012.1 1010.9 0.0
01/01:00pm 28.9 26.2 9.1 29 11.1 S 13 22 7 12 1012.6 1011.3 0.0
01/12:30pm 28.3 25.9 10.0 32 10.4 SE 13 28 7 15 1012.8 1011.5 0.0
01/12:00pm 26.9 24.2 10.2 35 9.4 SE 15 26 8 14 1013.2 1011.9 0.0
01/11:30am 26.5 23.1 10.6 37 9.0 SE 19 30 10 16 1013.5 1012.2 0.0
01/11:00am 26.1 23.7 11.4 39 8.4 SSE 15 22 8 12 1013.4 1012.1 0.0
01/10:30am 25.1 22.1 12.0 44 7.6 SE 19 26 10 14 1013.4 1012.1 0.0
01/10:00am 24.4 21.4 12.0 46 7.1 SE 19 30 10 16 1013.0 1011.3 0.0
01/09:30am 23.8 20.9 12.4 48 6.6 SE 19 30 10 16 1012.6 1010.9 0.0
01/09:00am 22.9 20.5 12.8 53 5.9 SSE 17 28 9 15 1012.2 1010.6 0.0
01/08:30am 20.7 15.4 11.1 54 5.3 SSW 30 41 16 22 1011.9 1010.3 0.0
01/08:00am 19.7 14.0 11.2 58 4.7 SSW 32 41 17 22 1011.7 1010.1 0.0
01/07:30am 19.4 13.2 11.4 60 4.5 SSW 35 44 19 24 1011.2 1009.6 0.0
01/07:00am 19.8 14.0 12.6 63 4.1 SSW 35 44 19 24 1010.5 1008.9 0.0
01/06:30am 20.4 15.3 13.6 65 4.0 SSW 33 43 18 23 1010.1 1008.5 0.0
01/06:00am 20.7 15.7 14.1 66 3.9 SSW 33 43 18 23 1009.7 1008.1 0.0
01/05:35am 21.1 16.0 14.7 67 3.8 SSW 35 54 19 29 1009.5 1007.8 0.0
01/05:30am 21.1 16.3 14.7 67 3.8 SSW 33 48 18 26 1009.5 1007.8 0.0
01/05:00am 21.4 16.4 15.0 67 3.8 SSW 35 44 19 24 1008.9 1007.2 0.0
01/04:30am 21.7 16.5 15.5 68 3.7 SSW 37 48 20 26 1008.8 1007.1 0.0
01/04:00am 22.1 16.7 15.9 68 3.8 SSW 39 48 21 26 1008.5 1006.8 0.0
01/03:30am 22.2 17.6 16.2 69 3.7 SSW 35 46 19 25 1008.3 1006.7 0.0
01/03:00am 22.4 17.4 16.0 67 3.9 SSW 37 48 20 26 1008.2 1006.6 0.0
01/02:30am 23.1 18.3 15.7 63 4.5 SSW 35 46 19 25 1008.5 1006.8 0.0
01/02:00am 23.9 19.9 15.1 58 5.3 S 30 39 16 21 1008.5 1006.8 0.0
01/01:30am 24.2 20.5 15.1 56 5.5 S 28 39 15 21 1008.3 1006.7 0.0
01/01:25am 24.3 20.2 15.0 56 5.6 S 30 48 16 26 1008.3 1006.7 0.0
01/01:00am 25.5 18.8 13.4 47 7.2 SSW 41 54 22 29 1007.9 1006.3 0.0
01/12:30am 26.7 20.7 12.0 40 8.6 SSW 35 50 19 27 1007.7 1006.1 0.0
01/12:19am 27.1 19.9 12.0 39 8.8 SSW 41 59 22 32 1007.4 1005.8 0.0
01/12:00am 27.7 20.6 10.9 35 9.7 SSW 39 54 21 29 1007.5 1005.9 0.0
 
Date/Time
CDT
Temp
°C
App
Temp
°C
Dew
Point
Rel
Hum
%
Delta-T
°C
Wind Press
QNH
hPa
Press
MSL
hPa
Rain
since 9 am
mm
Dir
 
Spd
km/h
Gust
km/h
Spd
kts
Gust
kts
28/11:30pm 28.8 22.1 9.5 30 10.9 SSW 35 50 19 27 1007.3 1005.7 0.0
28/11:00pm 29.7 22.4 8.7 27 11.7 SSW 37 48 20 26 1007.2 1005.6 0.0
28/10:30pm 31.7 25.0 8.0 23 13.3 SSW 33 44 18 24 1006.8 1005.2 0.0
28/10:00pm 32.6 25.8 6.7 20 14.2 SSW 32 44 17 24 1006.7 1005.1 0.0
28/09:30pm 33.4 29.4 5.0 17 15.3 WSW 15 37 8 20 1006.2 1004.6 0.0
28/09:28pm 33.3 30.1 5.0 17 15.2 WNW 11 37 6 20 1006.2 1004.6 0.0
28/09:00pm 32.6 29.9 3.5 16 15.2 N 7 9 4 5 1005.4 1003.7 0.0
28/08:30pm 34.3 32.8 3.0 14 16.4 CALM 0 0 0 0 1005.2 1003.5 0.0
28/08:00pm 35.3 33.7 2.7 13 17.0 CALM 0 0 0 0 1005.2 1003.5 0.0
28/07:30pm 36.7 33.1 2.7 12 18.0 W 11 15 6 8 1005.3 1003.6 0.0
28/07:00pm 37.7 33.6 2.2 11 18.7 WSW 13 17 7 9 1005.2 1003.5 0.0
28/06:30pm 37.8 32.6 2.3 11 18.8 WSW 19 26 10 14 1005.2 1003.5 0.0
28/06:00pm 38.8 32.5 1.7 10 19.5 W 24 35 13 19 1005.0 1003.3 0.0
28/05:30pm 39.0 33.5 1.9 10 19.6 WSW 20 33 11 18 1004.8 1003.1 0.0
28/05:11pm 39.5 32.5 2.2 10 19.8 WSW 28 43 15 23 1004.6 1002.9 0.0
28/05:00pm 39.1 33.8 1.9 10 19.6 WNW 19 35 10 19 1004.5 1002.8 0.0
28/04:30pm 39.3 35.0 3.4 11 19.4 WNW 15 26 8 14 1004.7 1003.0 0.0
28/04:00pm 39.2 35.3 3.4 11 19.3 WSW 13 26 7 14 1004.9 1003.2 0.0
28/03:30pm 40.1 35.2 4.0 11 19.8 W 19 35 10 19 1005.1 1003.4 0.0
28/03:00pm 39.9 35.0 3.9 11 19.7 WNW 19 33 10 18 1005.5 1003.8 0.0
28/02:30pm 37.8 32.8 3.5 12 18.4 W 19 33 10 18 1006.1 1004.4 0.0
28/02:00pm 38.1 33.9 3.8 12 18.5 NW 15 26 8 14 1006.3 1004.7 0.0
28/01:30pm 38.9 34.8 4.4 12 18.9 NNW 15 30 8 16 1006.5 1004.9 0.0
28/01:00pm 38.1 33.3 4.9 13 18.2 NW 19 33 10 18 1006.9 1005.3 0.0
28/12:30pm 36.9 32.5 5.0 14 17.5 NW 17 32 9 17 1007.3 1005.7 0.0
28/12:00pm 36.7 32.2 5.9 15 17.1 N 19 30 10 16 1007.9 1006.3 0.0
28/11:30am 35.7 31.2 6.9 17 16.1 NNW 20 32 11 17 1008.1 1006.5 0.0
28/11:00am 35.5 30.6 6.7 17 16.0 NNW 22 30 12 16 1008.1 1006.5 0.0
28/10:30am 34.6 30.1 6.8 18 15.5 N 20 30 11 16 1008.1 1006.5 0.0
28/10:00am 34.4 30.0 6.7 18 15.3 N 19 28 10 15 1008.1 1006.5 0.0
28/09:30am 32.2 29.7 8.4 23 13.4 N 11 17 6 9 1008.1 1006.5 0.0
28/09:00am 29.1 28.2 7.6 26 11.8 SSW 2 6 1 3 1008.0 1006.4 0.0
28/08:30am 26.4 24.8 7.9 31 10.1 SE 6 7 3 4 1007.7 1006.1 0.0
28/08:00am 24.8 22.4 7.0 32 9.4 SE 9 11 5 6 1007.4 1005.8 0.0
28/07:30am 23.7 22.9 6.5 33 9.0 CALM 0 4 0 2 1007.2 1005.6 0.0
28/07:00am 23.5 21.6 6.7 34 8.8 ESE 6 7 3 4 1006.9 1005.3 0.0
28/06:30am 23.3 22.0 6.1 33 8.9 E 2 6 1 3 1006.6 1005.0 0.0
28/06:00am 24.3 23.5 6.6 32 9.3 CALM 0 0 0 0 1006.4 1004.8 0.0
28/05:30am 24.1 23.4 6.8 33 9.1 CALM 0 0 0 0 1006.2 1004.6 0.0
28/05:00am 24.5 22.5 6.3 31 9.5 ENE 6 9 3 5 1005.9 1004.2 0.0
28/04:30am 25.5 23.0 6.7 30 10.0 E 9 11 5 6 1006.2 1004.6 0.0
28/04:00am 26.3 24.6 7.4 30 10.2 ESE 6 9 3 5 1006.1 1004.4 0.0
28/03:30am 27.1 26.0 7.0 28 10.8 NE 2 6 1 3 1006.4 1004.8 0.0
28/03:00am 27.8 25.8 7.1 27 11.2 NE 7 7 4 4 1006.6 1005.0 0.0
28/02:30am 28.6 27.3 7.8 27 11.4 ENE 4 7 2 4 1007.1 1005.5 0.0
28/02:00am 28.5 28.0 7.7 27 11.4 CALM 0 0 0 0 1007.4 1005.8 0.0
28/01:30am 29.0 28.4 7.6 26 11.7 CALM 0 0 0 0 1007.5 1005.9 0.0
28/01:00am 28.5 26.6 7.7 27 11.4 WSW 7 9 4 5 1007.7 1006.1 0.0
28/12:30am 29.7 28.0 7.6 25 12.2 SE 6 7 3 4 1007.6 1006.0 0.0
28/12:00am 30.1 27.8 7.3 24 12.5 ESE 9 11 5 6 1007.9 1006.3 0.0
 
Date/Time
CDT
Temp
°C
App
Temp
°C
Dew
Point
Rel
Hum
%
Delta-T
°C
Wind Press
QNH
hPa
Press
MSL
hPa
Rain
since 9 am
mm
Dir
 
Spd
km/h
Gust
km/h
Spd
kts
Gust
kts
27/11:30pm 30.1 28.5 7.9 25 12.3 SE 6 7 3 4 1008.2 1006.6 0.0
27/11:00pm 30.2 27.9 7.4 24 12.5 E 9 11 5 6 1008.5 1006.8 0.0
27/10:30pm 31.1 28.1 7.5 23 13.0 E 13 15 7 8 1008.6 1006.9 0.0
27/10:00pm 31.7 28.4 8.0 23 13.2 ENE 15 20 8 11 1008.7 1007.0 0.0
27/09:30pm 32.2 29.0 8.4 23 13.4 E 15 19 8 10 1008.2 1006.6 0.0
27/09:00pm 32.9 30.1 8.4 22 13.9 E 13 17 7 9 1007.8 1006.2 0.0
27/08:30pm 33.6 30.8 6.8 19 14.8 SSW 11 15 6 8 1007.2 1005.6 0.0
27/08:00pm 34.0 29.9 6.3 18 15.2 SSW 17 20 9 11 1006.8 1005.2 0.0
27/07:30pm 34.7 30.8 6.9 18 15.5 S 17 22 9 12 1006.8 1005.2 0.0
27/07:00pm 35.0 30.0 6.3 17 15.8 SSW 22 28 12 15 1006.5 1004.9 0.0
27/06:30pm 36.1 32.0 6.3 16 16.6 SSW 17 30 9 16 1006.5 1004.9 0.0
27/06:00pm 36.3 34.0 5.5 15 16.9 W 7 11 4 6 1006.4 1004.8 0.0

Other Formats:

Comma delimited format used in spreadsheet applications
http://www.bom.gov.au/fwo/IDS60801/IDS60801.94674.axf

JavaScript Object Notation format (JSON) in row-major order
http://www.bom.gov.au/fwo/IDS60801/IDS60801.94674.json